sensor_id;sensor_type;location;lat;lon;timestamp;pressure;altitude;pressure_sealevel;temperature;humidity
69455;BME280;56660;51.986;5.930;2022-09-01T00:00:25;102145.94;;;18.22;52.38
69455;BME280;56660;51.986;5.930;2022-09-01T00:02:52;102150.28;;;18.15;52.40
69455;BME280;56660;51.986;5.930;2022-09-01T00:05:18;102147.91;;;18.12;52.42
69455;BME280;56660;51.986;5.930;2022-09-01T00:07:51;102148.22;;;18.09;52.59
69455;BME280;56660;51.986;5.930;2022-09-01T00:10:19;102145.00;;;18.06;52.72
69455;BME280;56660;51.986;5.930;2022-09-01T00:15:42;102144.47;;;18.02;52.71
69455;BME280;56660;51.986;5.930;2022-09-01T00:18:08;102135.69;;;18.00;52.63
69455;BME280;56660;51.986;5.930;2022-09-01T00:20:34;102139.72;;;17.96;52.85
69455;BME280;56660;51.986;5.930;2022-09-01T00:23:00;102138.34;;;17.92;52.88
69455;BME280;56660;51.986;5.930;2022-09-01T00:25:30;102145.78;;;17.90;52.92
69455;BME280;56660;51.986;5.930;2022-09-01T00:27:56;102140.53;;;17.88;53.04
69455;BME280;56660;51.986;5.930;2022-09-01T00:30:22;102143.38;;;17.87;53.05
69455;BME280;56660;51.986;5.930;2022-09-01T00:32:49;102147.44;;;17.83;53.30
69455;BME280;56660;51.986;5.930;2022-09-01T00:35:15;102152.69;;;17.84;53.01
69455;BME280;56660;51.986;5.930;2022-09-01T00:37:42;102145.72;;;17.82;52.90
69455;BME280;56660;51.986;5.930;2022-09-01T00:40:26;102147.25;;;17.84;52.81
69455;BME280;56660;51.986;5.930;2022-09-01T00:42:53;102136.59;;;17.83;52.70
69455;BME280;56660;51.986;5.930;2022-09-01T00:45:19;102140.16;;;17.83;52.79
69455;BME280;56660;51.986;5.930;2022-09-01T00:48:17;102133.53;;;17.78;52.84
69455;BME280;56660;51.986;5.930;2022-09-01T00:50:50;102133.84;;;17.75;53.09
69455;BME280;56660;51.986;5.930;2022-09-01T00:53:16;102131.47;;;17.72;53.22
69455;BME280;56660;51.986;5.930;2022-09-01T00:55:46;102130.63;;;17.71;53.46
69455;BME280;56660;51.986;5.930;2022-09-01T00:58:11;102130.78;;;17.70;53.35
69455;BME280;56660;51.986;5.930;2022-09-01T01:00:40;102130.78;;;17.70;53.60
69455;BME280;56660;51.986;5.930;2022-09-01T01:03:14;102124.69;;;17.67;53.26
69455;BME280;56660;51.986;5.930;2022-09-01T01:05:41;102124.84;;;17.66;53.51
69455;BME280;56660;51.986;5.930;2022-09-01T01:08:12;102122.28;;;17.64;53.32
69455;BME280;56660;51.986;5.930;2022-09-01T01:10:39;102119.88;;;17.61;52.91
69455;BME280;56660;51.986;5.930;2022-09-01T01:13:10;102120.19;;;17.58;52.96
69455;BME280;56660;51.986;5.930;2022-09-01T01:16:12;102123.91;;;17.57;53.13
69455;BME280;56660;51.986;5.930;2022-09-01T01:18:43;102120.38;;;17.57;52.93
69455;BME280;56660;51.986;5.930;2022-09-01T01:21:14;102121.22;;;17.57;52.57
69455;BME280;56660;51.986;5.930;2022-09-01T01:23:44;102121.06;;;17.59;52.50
69455;BME280;56660;51.986;5.930;2022-09-01T01:26:19;102120.03;;;17.60;52.52
69455;BME280;56660;51.986;5.930;2022-09-01T01:28:44;102120.91;;;17.60;52.42
69455;BME280;56660;51.986;5.930;2022-09-01T01:31:11;102118.88;;;17.62;52.39
69455;BME280;56660;51.986;5.930;2022-09-01T01:33:43;102122.28;;;17.64;52.07
69455;BME280;56660;51.986;5.930;2022-09-01T01:36:12;102114.88;;;17.66;52.15
69455;BME280;56660;51.986;5.930;2022-09-01T01:38:40;102127.91;;;17.71;51.76
69455;BME280;56660;51.986;5.930;2022-09-01T01:41:10;102120.66;;;17.72;51.69
69455;BME280;56660;51.986;5.930;2022-09-01T01:43:38;102114.22;;;17.73;51.57
69455;BME280;56660;51.986;5.930;2022-09-01T01:46:05;102118.16;;;17.78;51.60
69455;BME280;56660;51.986;5.930;2022-09-01T01:48:32;102127.47;;;17.84;51.25
69455;BME280;56660;51.986;5.930;2022-09-01T01:50:59;102125.13;;;17.89;51.04
69455;BME280;56660;51.986;5.930;2022-09-01T01:53:25;102115.69;;;17.93;51.03
69455;BME280;56660;51.986;5.930;2022-09-01T01:55:51;102127.56;;;18.00;50.48
69455;BME280;56660;51.986;5.930;2022-09-01T01:58:18;102125.53;;;18.02;50.36
69455;BME280;56660;51.986;5.930;2022-09-01T02:00:47;102130.63;;;18.05;50.55
69455;BME280;56660;51.986;5.930;2022-09-01T02:03:15;102126.91;;;18.06;50.33
69455;BME280;56660;51.986;5.930;2022-09-01T02:05:44;102122.00;;;18.10;50.03
69455;BME280;56660;51.986;5.930;2022-09-01T02:08:11;102122.00;;;18.10;50.03
69455;BME280;56660;51.986;5.930;2022-09-01T02:10:38;102122.00;;;18.10;50.06
69455;BME280;56660;51.986;5.930;2022-09-01T02:13:05;102119.31;;;18.10;49.85
69455;BME280;56660;51.986;5.930;2022-09-01T02:15:32;102115.75;;;18.09;50.12
69455;BME280;56660;51.986;5.930;2022-09-01T02:18:01;102122.19;;;18.08;49.90
69455;BME280;56660;51.986;5.930;2022-09-01T02:20:27;102121.81;;;18.03;49.96
69455;BME280;56660;51.986;5.930;2022-09-01T02:22:52;102117.06;;;17.97;50.03
69455;BME280;56660;51.986;5.930;2022-09-01T02:25:18;102124.31;;;17.96;49.86
69455;BME280;56660;51.986;5.930;2022-09-01T02:27:43;102117.38;;;17.94;50.18
69455;BME280;56660;51.986;5.930;2022-09-01T02:30:09;102133.63;;;17.94;50.25
69455;BME280;56660;51.986;5.930;2022-09-01T02:32:35;102119.56;;;17.90;50.12
69455;BME280;56660;51.986;5.930;2022-09-01T02:35:02;102121.75;;;17.87;50.30
69455;BME280;56660;51.986;5.930;2022-09-01T02:37:28;102123.75;;;17.85;50.25
69455;BME280;56660;51.986;5.930;2022-09-01T02:39:54;102121.22;;;17.83;50.49
69455;BME280;56660;51.986;5.930;2022-09-01T02:42:19;102124.94;;;17.82;50.31
69455;BME280;56660;51.986;5.930;2022-09-01T02:44:45;102121.69;;;17.79;50.42
69455;BME280;56660;51.986;5.930;2022-09-01T02:47:10;102129.97;;;17.77;50.53
69455;BME280;56660;51.986;5.930;2022-09-01T02:49:35;102125.06;;;17.73;50.78
69455;BME280;56660;51.986;5.930;2022-09-01T02:52:02;102119.28;;;17.67;50.57
69455;BME280;56660;51.986;5.930;2022-09-01T02:54:28;102124.13;;;17.64;50.88
69455;BME280;56660;51.986;5.930;2022-09-01T02:56:55;102123.97;;;17.65;50.72
69455;BME280;56660;51.986;5.930;2022-09-01T02:59:22;102124.84;;;17.66;50.85
69455;BME280;56660;51.986;5.930;2022-09-01T03:01:51;102112.28;;;17.65;50.59
69455;BME280;56660;51.986;5.930;2022-09-01T03:04:18;102116.84;;;17.64;50.76
69455;BME280;56660;51.986;5.930;2022-09-01T03:06:44;102120.56;;;17.63;50.68
69455;BME280;56660;51.986;5.930;2022-09-01T03:09:12;102120.91;;;17.60;50.84
69455;BME280;56660;51.986;5.930;2022-09-01T03:11:40;102115.66;;;17.59;51.10
69455;BME280;56660;51.986;5.930;2022-09-01T03:14:08;102121.22;;;17.57;50.96
69455;BME280;56660;51.986;5.930;2022-09-01T03:16:34;102116.13;;;17.54;51.22
69455;BME280;56660;51.986;5.930;2022-09-01T03:19:00;102114.25;;;17.55;51.14
69455;BME280;56660;51.986;5.930;2022-09-01T03:21:26;102116.97;;;17.55;51.06
69455;BME280;56660;51.986;5.930;2022-09-01T03:23:51;102115.28;;;17.54;51.06
69455;BME280;56660;51.986;5.930;2022-09-01T03:26:20;102118.28;;;17.51;51.05
69455;BME280;56660;51.986;5.930;2022-09-01T03:28:46;102117.06;;;17.45;51.14
69455;BME280;56660;51.986;5.930;2022-09-01T03:31:12;102124.81;;;17.40;51.14
69455;BME280;56660;51.986;5.930;2022-09-01T03:33:38;102118.72;;;17.38;51.19
69455;BME280;56660;51.986;5.930;2022-09-01T03:36:04;102125.44;;;17.34;51.38
69455;BME280;56660;51.986;5.930;2022-09-01T03:38:29;102116.13;;;17.28;51.32
69455;BME280;56660;51.986;5.930;2022-09-01T03:40:57;102122.69;;;17.26;51.35
69455;BME280;56660;51.986;5.930;2022-09-01T03:43:26;102122.47;;;17.19;51.78
69455;BME280;56660;51.986;5.930;2022-09-01T03:45:52;102117.38;;;17.16;51.71
69455;BME280;56660;51.986;5.930;2022-09-01T03:48:18;102128.19;;;17.16;51.72
69455;BME280;56660;51.986;5.930;2022-09-01T03:50:44;102126.50;;;17.15;51.78
69455;BME280;56660;51.986;5.930;2022-09-01T03:53:10;102129.03;;;17.17;51.48
69455;BME280;56660;51.986;5.930;2022-09-01T03:55:36;102124.09;;;17.12;51.61
69455;BME280;56660;51.986;5.930;2022-09-01T03:58:03;102122.56;;;17.10;51.50
69455;BME280;56660;51.986;5.930;2022-09-01T04:00:33;102119.31;;;17.06;51.57
69455;BME280;56660;51.986;5.930;2022-09-01T04:03:02;102112.38;;;17.03;51.64
69455;BME280;56660;51.986;5.930;2022-09-01T04:05:30;102111.31;;;16.96;51.82
69455;BME280;56660;51.986;5.930;2022-09-01T04:07:56;102106.91;;;16.95;51.95
69455;BME280;56660;51.986;5.930;2022-09-01T04:10:23;102115.88;;;16.96;52.01
69455;BME280;56660;51.986;5.930;2022-09-01T04:12:49;102117.72;;;16.95;51.74
69455;BME280;56660;51.986;5.930;2022-09-01T04:15:15;102102.34;;;16.96;51.71
69455;BME280;56660;51.986;5.930;2022-09-01T04:17:43;102114.00;;;16.96;51.75
69455;BME280;56660;51.986;5.930;2022-09-01T04:20:09;102116.41;;;16.99;51.74
69455;BME280;56660;51.986;5.930;2022-09-01T04:22:35;102112.00;;;16.98;51.74
69455;BME280;56660;51.986;5.930;2022-09-01T04:25:00;102110.78;;;16.93;51.80
69455;BME280;56660;51.986;5.930;2022-09-01T04:27:25;102111.94;;;16.90;51.86
69455;BME280;56660;51.986;5.930;2022-09-01T04:29:51;102106.69;;;16.89;52.07
69455;BME280;56660;51.986;5.930;2022-09-01T04:32:16;102110.22;;;16.89;51.86
69455;BME280;56660;51.986;5.930;2022-09-01T04:34:43;102106.69;;;16.89;52.29
69455;BME280;56660;51.986;5.930;2022-09-01T04:37:09;102108.22;;;16.91;51.71
69455;BME280;56660;51.986;5.930;2022-09-01T04:39:36;102102.81;;;16.91;51.51
69455;BME280;56660;51.986;5.930;2022-09-01T04:42:02;102106.53;;;16.90;51.55
69455;BME280;56660;51.986;5.930;2022-09-01T04:44:27;102111.53;;;16.85;51.67
69455;BME280;56660;51.986;5.930;2022-09-01T04:46:53;102109.16;;;16.82;51.77
69455;BME280;56660;51.986;5.930;2022-09-01T04:49:18;102120.28;;;16.79;51.99
69455;BME280;56660;51.986;5.930;2022-09-01T04:51:46;102123.28;;;16.76;51.86
69455;BME280;56660;51.986;5.930;2022-09-01T04:54:14;102120.88;;;16.73;51.92
69455;BME280;56660;51.986;5.930;2022-09-01T04:56:40;102116.66;;;16.70;51.94
69455;BME280;56660;51.986;5.930;2022-09-01T04:59:07;102120.66;;;16.66;52.02
69455;BME280;56660;51.986;5.930;2022-09-01T05:01:33;102118.81;;;16.67;51.77
69455;BME280;56660;51.986;5.930;2022-09-01T05:03:59;102116.69;;;16.61;51.94
69455;BME280;56660;51.986;5.930;2022-09-01T05:06:26;102118.69;;;16.59;51.85
69455;BME280;56660;51.986;5.930;2022-09-01T05:08:55;102115.91;;;16.51;52.17
69455;BME280;56660;51.986;5.930;2022-09-01T05:11:21;102120.59;;;16.49;52.30
69455;BME280;56660;51.986;5.930;2022-09-01T05:13:47;102118.91;;;16.48;52.25
69455;BME280;56660;51.986;5.930;2022-09-01T05:16:14;102113.66;;;16.46;52.18
69455;BME280;56660;51.986;5.930;2022-09-01T05:18:41;102120.91;;;16.46;52.33
69455;BME280;56660;51.986;5.930;2022-09-01T05:21:08;102124.31;;;16.48;52.33
69455;BME280;56660;51.986;5.930;2022-09-01T05:23:34;102129.84;;;16.46;52.13
69455;BME280;56660;51.986;5.930;2022-09-01T05:26:01;102124.63;;;16.45;52.27
69455;BME280;56660;51.986;5.930;2022-09-01T05:28:27;102130.00;;;16.45;52.40
69455;BME280;56660;51.986;5.930;2022-09-01T05:30:52;102133.72;;;16.44;52.56
69455;BME280;56660;51.986;5.930;2022-09-01T05:33:18;102145.50;;;16.43;52.23
69455;BME280;56660;51.986;5.930;2022-09-01T05:35:51;102132.16;;;16.41;52.55
69455;BME280;56660;51.986;5.930;2022-09-01T05:38:18;102112.78;;;16.28;52.70
69455;BME280;56660;51.986;5.930;2022-09-01T05:40:44;102128.63;;;16.40;52.38
69455;BME280;56660;51.986;5.930;2022-09-01T05:43:21;102134.00;;;16.40;52.38
69455;BME280;56660;51.986;5.930;2022-09-01T05:45:47;102134.88;;;16.41;52.22
69455;BME280;56660;51.986;5.930;2022-09-01T05:48:13;102135.72;;;16.42;52.66
69455;BME280;56660;51.986;5.930;2022-09-01T05:50:38;102137.72;;;16.39;52.52
69455;BME280;56660;51.986;5.930;2022-09-01T05:53:05;102134.00;;;16.40;52.58
69455;BME280;56660;51.986;5.930;2022-09-01T05:55:30;102144.81;;;16.40;52.57
69455;BME280;56660;51.986;5.930;2022-09-01T05:57:55;102143.81;;;16.42;52.42
69455;BME280;56660;51.986;5.930;2022-09-01T06:00:22;102137.88;;;16.38;52.26
69455;BME280;56660;51.986;5.930;2022-09-01T06:05:33;102148.91;;;16.45;52.56
69455;BME280;56660;51.986;5.930;2022-09-01T06:07:58;102146.34;;;16.43;52.30
69455;BME280;56660;51.986;5.930;2022-09-01T06:10:24;102146.50;;;16.42;52.29
69455;BME280;56660;51.986;5.930;2022-09-01T06:12:49;102147.66;;;16.39;52.20
69455;BME280;56660;51.986;5.930;2022-09-01T06:15:15;102151.22;;;16.39;52.25
69455;BME280;56660;51.986;5.930;2022-09-01T06:17:41;102156.31;;;16.43;52.63
69455;BME280;56660;51.986;5.930;2022-09-01T06:20:07;102152.31;;;16.47;52.27
69455;BME280;56660;51.986;5.930;2022-09-01T06:22:33;102157.25;;;16.51;52.26
69455;BME280;56660;51.986;5.930;2022-09-01T06:24:59;102153.22;;;16.65;52.21
69455;BME280;56660;51.986;5.930;2022-09-01T06:27:24;102155.06;;;16.82;51.74
69455;BME280;56660;51.986;5.930;2022-09-01T06:29:50;102157.78;;;17.00;51.49
69455;BME280;56660;51.986;5.930;2022-09-01T06:32:15;102148.28;;;17.14;51.33
69455;BME280;56660;51.986;5.930;2022-09-01T06:34:42;102152.41;;;17.26;51.14
69455;BME280;56660;51.986;5.930;2022-09-01T06:37:08;102159.53;;;17.27;50.71
69455;BME280;56660;51.986;5.930;2022-09-01T06:39:35;102151.03;;;17.22;50.80
69455;BME280;56660;51.986;5.930;2022-09-01T06:42:00;102148.34;;;17.22;51.08
69455;BME280;56660;51.986;5.930;2022-09-01T06:44:26;102156.34;;;17.31;51.04
69455;BME280;56660;51.986;5.930;2022-09-01T06:46:52;102157.78;;;17.44;50.90
69455;BME280;56660;51.986;5.930;2022-09-01T06:49:18;102168.34;;;17.55;50.44
69455;BME280;56660;51.986;5.930;2022-09-01T06:51:45;102163.84;;;17.63;50.70
69455;BME280;56660;51.986;5.930;2022-09-01T06:54:10;102171.41;;;17.78;50.27
69455;BME280;56660;51.986;5.930;2022-09-01T06:56:36;102161.31;;;17.88;50.30
69455;BME280;56660;51.986;5.930;2022-09-01T06:59:02;102166.44;;;17.99;50.19
69455;BME280;56660;51.986;5.930;2022-09-01T07:01:27;102165.69;;;18.15;50.41
69455;BME280;56660;51.986;5.930;2022-09-01T07:03:53;102163.75;;;18.33;50.50
69455;BME280;56660;51.986;5.930;2022-09-01T07:06:20;102163.47;;;18.52;49.71
69455;BME280;56660;51.986;5.930;2022-09-01T07:08:48;102166.06;;;18.62;49.42
69455;BME280;56660;51.986;5.930;2022-09-01T07:11:16;102160.50;;;18.72;49.67
69455;BME280;56660;51.986;5.930;2022-09-01T07:13:44;102152.56;;;18.86;49.42
69455;BME280;56660;51.986;5.930;2022-09-01T07:16:09;102167.50;;;18.99;49.16
69455;BME280;56660;51.986;5.930;2022-09-01T07:18:40;102177.66;;;19.13;48.95
69455;BME280;56660;51.986;5.930;2022-09-01T07:21:06;102173.78;;;19.23;48.79
69455;BME280;56660;51.986;5.930;2022-09-01T07:23:31;102178.34;;;19.39;48.96
69455;BME280;56660;51.986;5.930;2022-09-01T07:25:58;102171.72;;;19.50;48.34
69455;BME280;56660;51.986;5.930;2022-09-01T07:28:23;102168.50;;;19.46;48.50
69455;BME280;56660;51.986;5.930;2022-09-01T07:30:50;102169.19;;;19.40;48.22
69455;BME280;56660;51.986;5.930;2022-09-01T07:33:16;102165.81;;;19.30;48.40
69455;BME280;56660;51.986;5.930;2022-09-01T07:35:43;102169.72;;;19.27;48.35
69455;BME280;56660;51.986;5.930;2022-09-01T07:38:09;102174.13;;;19.28;48.41
69455;BME280;56660;51.986;5.930;2022-09-01T07:40:35;102171.56;;;19.35;47.86
69455;BME280;56660;51.986;5.930;2022-09-01T07:43:06;102159.38;;;19.39;48.00
69455;BME280;56660;51.986;5.930;2022-09-01T07:45:42;102169.88;;;19.42;47.32
69455;BME280;56660;51.986;5.930;2022-09-01T07:48:10;102169.69;;;19.44;47.89
69455;BME280;56660;51.986;5.930;2022-09-01T07:50:53;102165.81;;;19.54;47.81
69455;BME280;56660;51.986;5.930;2022-09-01T07:53:20;102171.75;;;19.66;47.37
69455;BME280;56660;51.986;5.930;2022-09-01T07:55:49;102167.47;;;19.80;47.37
69455;BME280;56660;51.986;5.930;2022-09-01T07:58:18;102167.44;;;19.88;46.56
69455;BME280;56660;51.986;5.930;2022-09-01T08:00:46;102170.31;;;19.95;46.71
69455;BME280;56660;51.986;5.930;2022-09-01T08:03:13;102172.31;;;20.01;47.25
69455;BME280;56660;51.986;5.930;2022-09-01T08:05:39;102166.50;;;20.12;47.32
69455;BME280;56660;51.986;5.930;2022-09-01T08:08:21;102156.78;;;20.26;47.02
69455;BME280;56660;51.986;5.930;2022-09-01T08:10:47;102166.94;;;20.40;46.79
69455;BME280;56660;51.986;5.930;2022-09-01T08:13:12;102165.03;;;20.48;46.40
69455;BME280;56660;51.986;5.930;2022-09-01T08:15:39;102162.63;;;20.53;46.44
69455;BME280;56660;51.986;5.930;2022-09-01T08:18:07;102157.50;;;20.59;46.37
69455;BME280;56660;51.986;5.930;2022-09-01T08:20:33;102153.53;;;20.69;46.64
69455;BME280;56660;51.986;5.930;2022-09-01T08:22:59;102162.97;;;20.81;46.28
69455;BME280;56660;51.986;5.930;2022-09-01T08:25:25;102165.09;;;20.94;46.02
69455;BME280;56660;51.986;5.930;2022-09-01T08:27:51;102162.88;;;20.98;45.57
69455;BME280;56660;51.986;5.930;2022-09-01T08:30:17;102163.00;;;21.04;45.44
69455;BME280;56660;51.986;5.930;2022-09-01T08:32:44;102167.03;;;21.08;45.27
69455;BME280;56660;51.986;5.930;2022-09-01T08:35:10;102164.13;;;21.10;45.49
69455;BME280;56660;51.986;5.930;2022-09-01T08:37:37;102162.75;;;21.14;45.32
69455;BME280;56660;51.986;5.930;2022-09-01T08:40:04;102171.00;;;21.21;44.78
69455;BME280;56660;51.986;5.930;2022-09-01T08:42:39;102165.53;;;21.29;44.65
69455;BME280;56660;51.986;5.930;2022-09-01T08:45:14;102155.63;;;21.36;44.71
69455;BME280;56660;51.986;5.930;2022-09-01T08:47:47;102159.09;;;21.44;45.04
69455;BME280;56660;51.986;5.930;2022-09-01T08:50:17;102157.81;;;21.55;45.05
69455;BME280;56660;51.986;5.930;2022-09-01T08:52:43;102166.84;;;21.70;43.78
69455;BME280;56660;51.986;5.930;2022-09-01T08:55:17;102165.53;;;21.81;44.20
69455;BME280;56660;51.986;5.930;2022-09-01T08:57:45;102160.19;;;21.88;43.13
69455;BME280;56660;51.986;5.930;2022-09-01T09:00:12;102153.13;;;21.93;43.80
69455;BME280;56660;51.986;5.930;2022-09-01T09:02:44;102150.88;;;21.97;42.88
69455;BME280;56660;51.986;5.930;2022-09-01T09:05:25;102150.31;;;22.01;42.84
69455;BME280;56660;51.986;5.930;2022-09-01T09:07:57;102142.53;;;22.13;43.20
69455;BME280;56660;51.986;5.930;2022-09-01T09:10:31;102144.41;;;22.27;42.71
69455;BME280;56660;51.986;5.930;2022-09-01T09:13:09;102147.47;;;22.39;41.74
69455;BME280;56660;51.986;5.930;2022-09-01T09:15:42;102136.66;;;22.45;41.06
69455;BME280;56660;51.986;5.930;2022-09-01T09:18:15;102146.59;;;22.53;40.60
69455;BME280;56660;51.986;5.930;2022-09-01T09:20:44;102132.41;;;22.58;40.68
69455;BME280;56660;51.986;5.930;2022-09-01T09:23:11;102133.13;;;22.66;40.67
69455;BME280;56660;51.986;5.930;2022-09-01T09:25:48;102127.34;;;22.76;40.21
69455;BME280;56660;51.986;5.930;2022-09-01T09:28:13;102114.84;;;22.82;40.89
69455;BME280;56660;51.986;5.930;2022-09-01T09:30:38;102120.16;;;22.90;39.97
69455;BME280;56660;51.986;5.930;2022-09-01T09:33:04;102115.38;;;22.92;40.79
69455;BME280;56660;51.986;5.930;2022-09-01T09:35:33;102118.59;;;23.02;40.18
69455;BME280;56660;51.986;5.930;2022-09-01T09:38:13;102121.66;;;23.14;40.52
69455;BME280;56660;51.986;5.930;2022-09-01T09:40:48;102123.63;;;23.26;39.82
69455;BME280;56660;51.986;5.930;2022-09-01T09:43:20;102120.38;;;23.37;38.60
69455;BME280;56660;51.986;5.930;2022-09-01T09:45:47;102113.03;;;23.38;38.14
69455;BME280;56660;51.986;5.930;2022-09-01T09:48:25;102100.63;;;23.35;37.67
69455;BME280;56660;51.986;5.930;2022-09-01T09:50:53;102089.09;;;23.40;38.28
69455;BME280;56660;51.986;5.930;2022-09-01T09:53:24;102081.00;;;23.47;37.73
69455;BME280;56660;51.986;5.930;2022-09-01T09:55:58;102100.81;;;23.55;38.34
69455;BME280;56660;51.986;5.930;2022-09-01T09:58:28;102091.41;;;23.64;36.91
69455;BME280;56660;51.986;5.930;2022-09-01T10:01:00;102087.22;;;23.62;36.90
69455;BME280;56660;51.986;5.930;2022-09-01T10:03:35;102097.53;;;23.66;37.73
69455;BME280;56660;51.986;5.930;2022-09-01T10:06:04;102090.41;;;23.72;36.48
69455;BME280;56660;51.986;5.930;2022-09-01T10:08:36;102097.56;;;23.73;36.84
69455;BME280;56660;51.986;5.930;2022-09-01T10:11:03;102086.88;;;23.78;36.76
69455;BME280;56660;51.986;5.930;2022-09-01T10:13:30;102090.50;;;23.85;35.38
69455;BME280;56660;51.986;5.930;2022-09-01T10:15:57;102084.63;;;23.88;36.46
69455;BME280;56660;51.986;5.930;2022-09-01T10:18:25;102091.56;;;23.91;35.61
69455;BME280;56660;51.986;5.930;2022-09-01T10:20:59;102080.44;;;23.92;36.14
69455;BME280;56660;51.986;5.930;2022-09-01T10:23:28;102083.59;;;23.96;35.31
69455;BME280;56660;51.986;5.930;2022-09-01T10:25:58;102089.72;;;23.98;34.72
69455;BME280;56660;51.986;5.930;2022-09-01T10:28:28;102084.69;;;24.01;35.57
69455;BME280;56660;51.986;5.930;2022-09-01T10:30:57;102079.88;;;24.10;35.64
69455;BME280;56660;51.986;5.930;2022-09-01T10:33:24;102071.69;;;24.17;35.67
69455;BME280;56660;51.986;5.930;2022-09-01T10:35:50;102081.81;;;24.23;35.25
69455;BME280;56660;51.986;5.930;2022-09-01T10:38:18;102091.53;;;24.32;35.42
69455;BME280;56660;51.986;5.930;2022-09-01T10:40:48;102077.06;;;24.38;34.16
69455;BME280;56660;51.986;5.930;2022-09-01T10:43:22;102072.22;;;24.40;35.34
69455;BME280;56660;51.986;5.930;2022-09-01T10:45:51;102065.94;;;24.53;35.71
69455;BME280;56660;51.986;5.930;2022-09-01T10:48:25;102082.78;;;24.63;33.91
69455;BME280;56660;51.986;5.930;2022-09-01T10:50:55;102067.44;;;24.62;33.88
69455;BME280;56660;51.986;5.930;2022-09-01T10:53:57;102077.94;;;24.65;34.52
69455;BME280;56660;51.986;5.930;2022-09-01T10:56:25;102060.28;;;24.74;33.96
69455;BME280;56660;51.986;5.930;2022-09-01T10:59:03;102058.19;;;24.83;34.50
69455;BME280;56660;51.986;5.930;2022-09-01T11:07:39;102052.31;;;24.99;34.67
69455;BME280;56660;51.986;5.930;2022-09-01T11:13:08;102049.13;;;25.28;35.38
69455;BME280;56660;51.986;5.930;2022-09-01T11:15:54;102054.38;;;25.43;34.40
69455;BME280;56660;51.986;5.930;2022-09-01T11:18:23;102051.19;;;25.53;32.76
69455;BME280;56660;51.986;5.930;2022-09-01T11:20:51;102046.97;;;25.50;33.60
69455;BME280;56660;51.986;5.930;2022-09-01T11:23:22;102047.81;;;25.57;34.48
69455;BME280;56660;51.986;5.930;2022-09-01T11:25:50;102044.88;;;25.66;33.17
69455;BME280;56660;51.986;5.930;2022-09-01T11:31:10;102035.34;;;25.75;33.21
69455;BME280;56660;51.986;5.930;2022-09-01T11:33:45;102036.97;;;25.89;33.21
69455;BME280;56660;51.986;5.930;2022-09-01T11:36:21;102034.59;;;26.06;32.90
69455;BME280;56660;51.986;5.930;2022-09-01T11:38:52;102043.19;;;26.16;32.39
69455;BME280;56660;51.986;5.930;2022-09-01T11:41:23;102042.97;;;26.17;32.07
69455;BME280;56660;51.986;5.930;2022-09-01T11:43:54;102037.06;;;26.20;31.45
69455;BME280;56660;51.986;5.930;2022-09-01T11:46:21;102046.50;;;26.31;32.41
69455;BME280;56660;51.986;5.930;2022-09-01T11:48:51;102027.69;;;26.41;32.65
69455;BME280;56660;51.986;5.930;2022-09-01T11:51:16;102025.69;;;26.55;32.10
69455;BME280;56660;51.986;5.930;2022-09-01T11:53:42;102029.16;;;26.69;32.12
69455;BME280;56660;51.986;5.930;2022-09-01T11:56:12;102023.50;;;26.88;31.38
69455;BME280;56660;51.986;5.930;2022-09-01T11:58:40;102026.72;;;27.10;31.16
69455;BME280;56660;51.986;5.930;2022-09-01T12:01:12;102021.09;;;27.23;31.03
69455;BME280;56660;51.986;5.930;2022-09-01T12:03:39;102008.38;;;27.47;30.45
69455;BME280;56660;51.986;5.930;2022-09-01T12:06:06;102016.03;;;27.64;30.80
69455;BME280;56660;51.986;5.930;2022-09-01T12:08:35;102012.50;;;27.75;30.70
69455;BME280;56660;51.986;5.930;2022-09-01T12:11:04;102006.38;;;27.91;30.96
69455;BME280;56660;51.986;5.930;2022-09-01T12:13:33;102012.50;;;28.23;30.67
69455;BME280;56660;51.986;5.930;2022-09-01T12:16:00;102005.25;;;28.40;29.80
69455;BME280;56660;51.986;5.930;2022-09-01T12:18:29;102008.31;;;28.62;29.70
69455;BME280;56660;51.986;5.930;2022-09-01T12:20:57;101996.78;;;28.84;30.37
69455;BME280;56660;51.986;5.930;2022-09-01T12:23:25;102000.47;;;29.01;29.92
69455;BME280;56660;51.986;5.930;2022-09-01T12:25:53;101999.88;;;29.22;28.61
69455;BME280;56660;51.986;5.930;2022-09-01T12:28:20;101996.16;;;29.28;29.00
69455;BME280;56660;51.986;5.930;2022-09-01T12:30:46;101991.84;;;29.21;29.17
69455;BME280;56660;51.986;5.930;2022-09-01T12:33:11;101987.03;;;29.28;29.48
69455;BME280;56660;51.986;5.930;2022-09-01T12:35:39;101996.97;;;29.52;29.35
69455;BME280;56660;51.986;5.930;2022-09-01T12:38:24;101999.09;;;29.62;28.21
69455;BME280;56660;51.986;5.930;2022-09-01T12:40:57;101995.22;;;29.74;28.49
69455;BME280;56660;51.986;5.930;2022-09-01T12:43:26;101996.56;;;30.00;28.28
69455;BME280;56660;51.986;5.930;2022-09-01T12:45:53;101990.03;;;30.18;27.72
69455;BME280;56660;51.986;5.930;2022-09-01T12:48:25;101984.47;;;30.30;27.28
69455;BME280;56660;51.986;5.930;2022-09-01T12:50:54;101980.19;;;30.39;26.87
69455;BME280;56660;51.986;5.930;2022-09-01T12:53:23;101976.19;;;30.47;27.48
69455;BME280;56660;51.986;5.930;2022-09-01T12:55:55;101991.50;;;30.54;25.83
69455;BME280;56660;51.986;5.930;2022-09-01T12:58:27;101967.00;;;30.58;25.97
69455;BME280;56660;51.986;5.930;2022-09-01T13:00:54;101979.47;;;30.77;25.82
69455;BME280;56660;51.986;5.930;2022-09-01T13:03:22;101982.88;;;31.01;25.97
69455;BME280;56660;51.986;5.930;2022-09-01T13:05:50;101974.47;;;31.13;26.00
69455;BME280;56660;51.986;5.930;2022-09-01T13:08:18;101977.00;;;31.31;25.04
69455;BME280;56660;51.986;5.930;2022-09-01T13:10:45;101965.50;;;31.39;25.64
69455;BME280;56660;51.986;5.930;2022-09-01T13:13:12;101958.69;;;31.25;24.39